sensor_id;sensor_type;location;lat;lon;timestamp;P1;durP1;ratioP1;P2;durP2;ratioP2
10005;SDS011;5042;42.626;23.382;2024-01-30T00:01:53;10.73;;;7.37;;
10005;SDS011;5042;42.626;23.382;2024-01-30T00:04:21;8.93;;;6.73;;
10005;SDS011;5042;42.626;23.382;2024-01-30T00:06:48;9.63;;;7.50;;
10005;SDS011;5042;42.626;23.382;2024-01-30T00:09:15;9.03;;;7.30;;
10005;SDS011;5042;42.626;23.382;2024-01-30T00:11:42;7.97;;;6.63;;
10005;SDS011;5042;42.626;23.382;2024-01-30T00:14:09;10.40;;;7.03;;
10005;SDS011;5042;42.626;23.382;2024-01-30T00:16:36;8.87;;;7.10;;
10005;SDS011;5042;42.626;23.382;2024-01-30T00:19:03;9.43;;;6.57;;
10005;SDS011;5042;42.626;23.382;2024-01-30T00:21:31;7.43;;;6.17;;
10005;SDS011;5042;42.626;23.382;2024-01-30T00:23:58;8.07;;;6.63;;
10005;SDS011;5042;42.626;23.382;2024-01-30T00:26:25;9.87;;;6.83;;
10005;SDS011;5042;42.626;23.382;2024-01-30T00:28:52;8.10;;;6.70;;
10005;SDS011;5042;42.626;23.382;2024-01-30T00:31:18;9.03;;;6.67;;
10005;SDS011;5042;42.626;23.382;2024-01-30T00:33:45;10.07;;;7.00;;
10005;SDS011;5042;42.626;23.382;2024-01-30T00:36:12;8.87;;;6.90;;
10005;SDS011;5042;42.626;23.382;2024-01-30T00:38:41;9.40;;;6.63;;
10005;SDS011;5042;42.626;23.382;2024-01-30T00:41:07;7.87;;;6.20;;
10005;SDS011;5042;42.626;23.382;2024-01-30T00:43:35;8.97;;;6.40;;
10005;SDS011;5042;42.626;23.382;2024-01-30T00:46:02;8.60;;;6.27;;
10005;SDS011;5042;42.626;23.382;2024-01-30T00:48:29;8.13;;;6.40;;
10005;SDS011;5042;42.626;23.382;2024-01-30T00:50:56;8.20;;;6.10;;
10005;SDS011;5042;42.626;23.382;2024-01-30T00:53:23;9.10;;;6.37;;
10005;SDS011;5042;42.626;23.382;2024-01-30T00:55:51;7.57;;;6.40;;
10005;SDS011;5042;42.626;23.382;2024-01-30T00:58:18;7.37;;;6.60;;
10005;SDS011;5042;42.626;23.382;2024-01-30T01:00:44;8.00;;;6.00;;
10005;SDS011;5042;42.626;23.382;2024-01-30T01:03:11;8.90;;;6.30;;
10005;SDS011;5042;42.626;23.382;2024-01-30T01:05:39;8.87;;;5.70;;
10005;SDS011;5042;42.626;23.382;2024-01-30T01:08:06;8.53;;;5.87;;
10005;SDS011;5042;42.626;23.382;2024-01-30T01:10:34;8.20;;;5.63;;
10005;SDS011;5042;42.626;23.382;2024-01-30T01:13:02;7.37;;;5.50;;
10005;SDS011;5042;42.626;23.382;2024-01-30T01:15:29;6.67;;;5.40;;
10005;SDS011;5042;42.626;23.382;2024-01-30T01:17:56;7.37;;;5.63;;
10005;SDS011;5042;42.626;23.382;2024-01-30T01:20:23;7.23;;;5.70;;
10005;SDS011;5042;42.626;23.382;2024-01-30T01:22:50;6.83;;;5.50;;
10005;SDS011;5042;42.626;23.382;2024-01-30T01:25:17;7.47;;;6.10;;
10005;SDS011;5042;42.626;23.382;2024-01-30T01:27:44;8.37;;;5.77;;
10005;SDS011;5042;42.626;23.382;2024-01-30T01:30:18;7.60;;;5.07;;
10005;SDS011;5042;42.626;23.382;2024-01-30T01:32:47;7.93;;;5.57;;
10005;SDS011;5042;42.626;23.382;2024-01-30T01:35:16;6.87;;;5.23;;
10005;SDS011;5042;42.626;23.382;2024-01-30T01:37:42;5.90;;;4.83;;
10005;SDS011;5042;42.626;23.382;2024-01-30T01:40:09;6.67;;;5.53;;
10005;SDS011;5042;42.626;23.382;2024-01-30T01:42:36;7.90;;;5.50;;
10005;SDS011;5042;42.626;23.382;2024-01-30T01:45:04;6.37;;;5.30;;
10005;SDS011;5042;42.626;23.382;2024-01-30T01:47:32;6.37;;;4.93;;
10005;SDS011;5042;42.626;23.382;2024-01-30T01:49:59;6.47;;;5.33;;
10005;SDS011;5042;42.626;23.382;2024-01-30T01:52:26;7.13;;;5.40;;
10005;SDS011;5042;42.626;23.382;2024-01-30T01:54:54;7.63;;;5.40;;
10005;SDS011;5042;42.626;23.382;2024-01-30T01:57:21;5.83;;;5.00;;
10005;SDS011;5042;42.626;23.382;2024-01-30T01:59:48;6.63;;;5.17;;
10005;SDS011;5042;42.626;23.382;2024-01-30T02:02:15;9.50;;;6.03;;
10005;SDS011;5042;42.626;23.382;2024-01-30T02:04:47;7.73;;;5.77;;
10005;SDS011;5042;42.626;23.382;2024-01-30T02:07:14;8.07;;;5.93;;
10005;SDS011;5042;42.626;23.382;2024-01-30T02:09:41;6.73;;;5.63;;
10005;SDS011;5042;42.626;23.382;2024-01-30T02:12:08;6.13;;;5.53;;
10005;SDS011;5042;42.626;23.382;2024-01-30T02:14:43;8.03;;;5.33;;
10005;SDS011;5042;42.626;23.382;2024-01-30T02:17:11;6.43;;;4.93;;
10005;SDS011;5042;42.626;23.382;2024-01-30T02:19:38;5.63;;;4.67;;
10005;SDS011;5042;42.626;23.382;2024-01-30T02:22:06;6.63;;;4.87;;
10005;SDS011;5042;42.626;23.382;2024-01-30T02:24:34;6.57;;;4.93;;
10005;SDS011;5042;42.626;23.382;2024-01-30T02:27:01;6.57;;;4.83;;
10005;SDS011;5042;42.626;23.382;2024-01-30T02:29:28;6.47;;;4.80;;
10005;SDS011;5042;42.626;23.382;2024-01-30T02:31:54;6.13;;;4.80;;
10005;SDS011;5042;42.626;23.382;2024-01-30T02:34:21;6.70;;;5.30;;
10005;SDS011;5042;42.626;23.382;2024-01-30T02:36:48;6.87;;;5.00;;
10005;SDS011;5042;42.626;23.382;2024-01-30T02:39:16;6.33;;;4.70;;
10005;SDS011;5042;42.626;23.382;2024-01-30T02:41:43;6.50;;;4.83;;
10005;SDS011;5042;42.626;23.382;2024-01-30T02:44:10;5.33;;;4.40;;
10005;SDS011;5042;42.626;23.382;2024-01-30T02:46:37;12.70;;;11.00;;
10005;SDS011;5042;42.626;23.382;2024-01-30T02:49:04;6.87;;;5.73;;
10005;SDS011;5042;42.626;23.382;2024-01-30T02:51:31;5.60;;;4.30;;
10005;SDS011;5042;42.626;23.382;2024-01-30T02:53:58;6.20;;;4.47;;
10005;SDS011;5042;42.626;23.382;2024-01-30T02:56:27;6.10;;;4.27;;
10005;SDS011;5042;42.626;23.382;2024-01-30T02:58:54;5.90;;;4.70;;
10005;SDS011;5042;42.626;23.382;2024-01-30T03:01:20;6.30;;;4.87;;
10005;SDS011;5042;42.626;23.382;2024-01-30T03:03:49;5.23;;;4.73;;
10005;SDS011;5042;42.626;23.382;2024-01-30T03:06:16;5.73;;;4.37;;
10005;SDS011;5042;42.626;23.382;2024-01-30T03:08:45;6.00;;;4.77;;
10005;SDS011;5042;42.626;23.382;2024-01-30T03:11:12;6.37;;;4.60;;
10005;SDS011;5042;42.626;23.382;2024-01-30T03:13:40;6.40;;;4.83;;
10005;SDS011;5042;42.626;23.382;2024-01-30T03:16:08;5.67;;;5.07;;
10005;SDS011;5042;42.626;23.382;2024-01-30T03:18:35;6.07;;;5.43;;
10005;SDS011;5042;42.626;23.382;2024-01-30T03:21:02;7.83;;;5.53;;
10005;SDS011;5042;42.626;23.382;2024-01-30T03:23:29;7.07;;;5.07;;
10005;SDS011;5042;42.626;23.382;2024-01-30T03:25:57;7.57;;;5.83;;
10005;SDS011;5042;42.626;23.382;2024-01-30T03:28:24;6.00;;;5.07;;
10005;SDS011;5042;42.626;23.382;2024-01-30T03:30:52;6.07;;;4.97;;
10005;SDS011;5042;42.626;23.382;2024-01-30T03:33:19;7.07;;;5.13;;
10005;SDS011;5042;42.626;23.382;2024-01-30T03:35:46;6.27;;;4.70;;
10005;SDS011;5042;42.626;23.382;2024-01-30T03:38:13;5.97;;;4.80;;
10005;SDS011;5042;42.626;23.382;2024-01-30T03:40:40;9.23;;;5.13;;
10005;SDS011;5042;42.626;23.382;2024-01-30T03:43:07;6.17;;;5.17;;
10005;SDS011;5042;42.626;23.382;2024-01-30T03:45:34;5.27;;;4.60;;
10005;SDS011;5042;42.626;23.382;2024-01-30T03:48:02;5.67;;;4.77;;
10005;SDS011;5042;42.626;23.382;2024-01-30T03:50:29;6.27;;;4.77;;
10005;SDS011;5042;42.626;23.382;2024-01-30T03:52:56;4.47;;;4.07;;
10005;SDS011;5042;42.626;23.382;2024-01-30T03:55:23;6.33;;;4.13;;
10005;SDS011;5042;42.626;23.382;2024-01-30T03:57:50;6.53;;;5.23;;
10005;SDS011;5042;42.626;23.382;2024-01-30T04:00:17;5.20;;;4.50;;
10005;SDS011;5042;42.626;23.382;2024-01-30T04:02:44;3.80;;;3.30;;
10005;SDS011;5042;42.626;23.382;2024-01-30T04:05:13;4.70;;;3.93;;
10005;SDS011;5042;42.626;23.382;2024-01-30T04:07:40;5.93;;;4.50;;
10005;SDS011;5042;42.626;23.382;2024-01-30T04:10:07;6.03;;;4.53;;
10005;SDS011;5042;42.626;23.382;2024-01-30T04:12:34;5.80;;;4.20;;
10005;SDS011;5042;42.626;23.382;2024-01-30T04:15:02;4.80;;;3.57;;
10005;SDS011;5042;42.626;23.382;2024-01-30T04:17:29;4.63;;;3.67;;
10005;SDS011;5042;42.626;23.382;2024-01-30T04:19:56;4.10;;;3.40;;
10005;SDS011;5042;42.626;23.382;2024-01-30T04:22:24;3.73;;;3.37;;
10005;SDS011;5042;42.626;23.382;2024-01-30T04:24:51;4.43;;;3.50;;
10005;SDS011;5042;42.626;23.382;2024-01-30T04:27:18;3.97;;;3.47;;
10005;SDS011;5042;42.626;23.382;2024-01-30T04:29:45;4.27;;;3.53;;
10005;SDS011;5042;42.626;23.382;2024-01-30T04:32:12;4.27;;;3.80;;
10005;SDS011;5042;42.626;23.382;2024-01-30T04:34:39;4.43;;;4.00;;
10005;SDS011;5042;42.626;23.382;2024-01-30T04:37:06;4.70;;;4.13;;
10005;SDS011;5042;42.626;23.382;2024-01-30T04:39:34;5.07;;;4.30;;
10005;SDS011;5042;42.626;23.382;2024-01-30T04:42:02;5.57;;;4.30;;
10005;SDS011;5042;42.626;23.382;2024-01-30T04:44:29;8.07;;;4.03;;
10005;SDS011;5042;42.626;23.382;2024-01-30T04:46:56;4.00;;;3.60;;
10005;SDS011;5042;42.626;23.382;2024-01-30T04:49:24;4.53;;;3.20;;
10005;SDS011;5042;42.626;23.382;2024-01-30T04:51:51;3.23;;;2.90;;
10005;SDS011;5042;42.626;23.382;2024-01-30T04:54:18;4.53;;;3.27;;
10005;SDS011;5042;42.626;23.382;2024-01-30T04:56:46;4.83;;;3.43;;
10005;SDS011;5042;42.626;23.382;2024-01-30T04:59:13;3.77;;;3.37;;
10005;SDS011;5042;42.626;23.382;2024-01-30T05:01:40;5.50;;;3.60;;
10005;SDS011;5042;42.626;23.382;2024-01-30T05:04:07;3.53;;;3.20;;
10005;SDS011;5042;42.626;23.382;2024-01-30T05:06:34;4.53;;;3.60;;
10005;SDS011;5042;42.626;23.382;2024-01-30T05:09:00;4.67;;;4.03;;
10005;SDS011;5042;42.626;23.382;2024-01-30T05:11:28;12.20;;;4.23;;
10005;SDS011;5042;42.626;23.382;2024-01-30T05:13:56;6.47;;;4.60;;
10005;SDS011;5042;42.626;23.382;2024-01-30T05:16:23;5.87;;;4.40;;
10005;SDS011;5042;42.626;23.382;2024-01-30T05:18:50;5.60;;;5.00;;
10005;SDS011;5042;42.626;23.382;2024-01-30T05:21:17;7.43;;;5.57;;
10005;SDS011;5042;42.626;23.382;2024-01-30T05:23:44;8.40;;;5.50;;
10005;SDS011;5042;42.626;23.382;2024-01-30T05:26:10;6.87;;;5.10;;
10005;SDS011;5042;42.626;23.382;2024-01-30T05:28:36;6.27;;;5.00;;
10005;SDS011;5042;42.626;23.382;2024-01-30T05:31:05;8.13;;;6.30;;
10005;SDS011;5042;42.626;23.382;2024-01-30T05:33:32;10.20;;;6.00;;
10005;SDS011;5042;42.626;23.382;2024-01-30T05:35:59;8.97;;;5.93;;
10005;SDS011;5042;42.626;23.382;2024-01-30T05:38:26;8.20;;;5.87;;
10005;SDS011;5042;42.626;23.382;2024-01-30T05:40:55;6.47;;;5.17;;
10005;SDS011;5042;42.626;23.382;2024-01-30T05:43:23;7.20;;;4.93;;
10005;SDS011;5042;42.626;23.382;2024-01-30T05:45:50;7.40;;;5.40;;
10005;SDS011;5042;42.626;23.382;2024-01-30T05:48:19;7.63;;;5.40;;
10005;SDS011;5042;42.626;23.382;2024-01-30T05:50:46;6.83;;;4.90;;
10005;SDS011;5042;42.626;23.382;2024-01-30T05:53:12;5.47;;;4.67;;
10005;SDS011;5042;42.626;23.382;2024-01-30T05:55:39;7.40;;;4.40;;
10005;SDS011;5042;42.626;23.382;2024-01-30T05:58:06;5.67;;;4.23;;
10005;SDS011;5042;42.626;23.382;2024-01-30T06:00:34;7.13;;;4.63;;
10005;SDS011;5042;42.626;23.382;2024-01-30T06:03:00;6.00;;;4.57;;
10005;SDS011;5042;42.626;23.382;2024-01-30T06:05:29;8.13;;;5.30;;
10005;SDS011;5042;42.626;23.382;2024-01-30T06:07:56;7.77;;;5.43;;
10005;SDS011;5042;42.626;23.382;2024-01-30T06:10:22;10.40;;;5.27;;
10005;SDS011;5042;42.626;23.382;2024-01-30T06:12:49;7.23;;;4.50;;
10005;SDS011;5042;42.626;23.382;2024-01-30T06:15:16;6.87;;;5.40;;
10005;SDS011;5042;42.626;23.382;2024-01-30T06:17:43;8.57;;;4.60;;
10005;SDS011;5042;42.626;23.382;2024-01-30T06:20:10;7.90;;;4.63;;
10005;SDS011;5042;42.626;23.382;2024-01-30T06:22:38;8.40;;;4.57;;
10005;SDS011;5042;42.626;23.382;2024-01-30T06:25:05;7.60;;;4.27;;
10005;SDS011;5042;42.626;23.382;2024-01-30T06:27:33;6.17;;;4.20;;
10005;SDS011;5042;42.626;23.382;2024-01-30T06:30:00;5.70;;;3.87;;
10005;SDS011;5042;42.626;23.382;2024-01-30T06:32:27;7.30;;;3.80;;
10005;SDS011;5042;42.626;23.382;2024-01-30T06:34:59;5.97;;;4.27;;
10005;SDS011;5042;42.626;23.382;2024-01-30T06:37:26;6.40;;;3.67;;
10005;SDS011;5042;42.626;23.382;2024-01-30T06:39:54;6.13;;;3.83;;
10005;SDS011;5042;42.626;23.382;2024-01-30T06:42:21;4.93;;;3.73;;
10005;SDS011;5042;42.626;23.382;2024-01-30T06:44:48;7.07;;;3.80;;
10005;SDS011;5042;42.626;23.382;2024-01-30T06:47:15;10.87;;;4.00;;
10005;SDS011;5042;42.626;23.382;2024-01-30T06:49:42;8.87;;;5.37;;
10005;SDS011;5042;42.626;23.382;2024-01-30T06:52:10;7.47;;;3.43;;
10005;SDS011;5042;42.626;23.382;2024-01-30T06:54:37;4.97;;;3.60;;
10005;SDS011;5042;42.626;23.382;2024-01-30T06:57:06;4.47;;;3.30;;
10005;SDS011;5042;42.626;23.382;2024-01-30T06:59:36;4.80;;;3.40;;
10005;SDS011;5042;42.626;23.382;2024-01-30T07:02:08;5.63;;;3.80;;
10005;SDS011;5042;42.626;23.382;2024-01-30T07:04:36;7.57;;;3.80;;
10005;SDS011;5042;42.626;23.382;2024-01-30T07:07:04;4.87;;;2.87;;
10005;SDS011;5042;42.626;23.382;2024-01-30T07:09:36;5.43;;;3.70;;
10005;SDS011;5042;42.626;23.382;2024-01-30T07:12:04;5.07;;;3.60;;
10005;SDS011;5042;42.626;23.382;2024-01-30T07:14:32;5.27;;;3.20;;
10005;SDS011;5042;42.626;23.382;2024-01-30T07:16:59;5.20;;;3.00;;
10005;SDS011;5042;42.626;23.382;2024-01-30T07:19:26;6.47;;;3.90;;
10005;SDS011;5042;42.626;23.382;2024-01-30T07:21:53;4.57;;;3.03;;
10005;SDS011;5042;42.626;23.382;2024-01-30T07:24:20;6.60;;;3.07;;
10005;SDS011;5042;42.626;23.382;2024-01-30T07:26:47;3.70;;;2.80;;
10005;SDS011;5042;42.626;23.382;2024-01-30T07:29:15;2.83;;;2.60;;
10005;SDS011;5042;42.626;23.382;2024-01-30T07:31:42;3.40;;;2.63;;
10005;SDS011;5042;42.626;23.382;2024-01-30T07:34:09;3.93;;;2.40;;
10005;SDS011;5042;42.626;23.382;2024-01-30T07:36:36;4.60;;;2.87;;
10005;SDS011;5042;42.626;23.382;2024-01-30T07:39:03;2.87;;;2.37;;
10005;SDS011;5042;42.626;23.382;2024-01-30T07:41:30;2.30;;;2.10;;
10005;SDS011;5042;42.626;23.382;2024-01-30T07:43:57;4.03;;;2.73;;
10005;SDS011;5042;42.626;23.382;2024-01-30T07:46:26;4.27;;;3.23;;
10005;SDS011;5042;42.626;23.382;2024-01-30T07:48:53;5.00;;;3.10;;
10005;SDS011;5042;42.626;23.382;2024-01-30T07:51:20;4.53;;;3.60;;
10005;SDS011;5042;42.626;23.382;2024-01-30T07:53:47;4.50;;;3.27;;
10005;SDS011;5042;42.626;23.382;2024-01-30T07:56:14;4.70;;;3.37;;
10005;SDS011;5042;42.626;23.382;2024-01-30T07:58:42;4.67;;;3.60;;
10005;SDS011;5042;42.626;23.382;2024-01-30T08:01:09;4.70;;;3.60;;
10005;SDS011;5042;42.626;23.382;2024-01-30T08:03:38;3.97;;;3.57;;
10005;SDS011;5042;42.626;23.382;2024-01-30T08:06:06;6.00;;;4.17;;
10005;SDS011;5042;42.626;23.382;2024-01-30T08:08:33;5.13;;;3.73;;
10005;SDS011;5042;42.626;23.382;2024-01-30T08:11:00;5.73;;;3.87;;
10005;SDS011;5042;42.626;23.382;2024-01-30T08:13:27;4.53;;;3.70;;
10005;SDS011;5042;42.626;23.382;2024-01-30T08:15:54;5.73;;;3.73;;
10005;SDS011;5042;42.626;23.382;2024-01-30T08:18:21;9.47;;;5.00;;
10005;SDS011;5042;42.626;23.382;2024-01-30T08:20:49;8.60;;;4.07;;
10005;SDS011;5042;42.626;23.382;2024-01-30T08:23:16;8.43;;;4.37;;
10005;SDS011;5042;42.626;23.382;2024-01-30T08:25:43;5.33;;;4.20;;
10005;SDS011;5042;42.626;23.382;2024-01-30T08:28:10;4.87;;;3.70;;
10005;SDS011;5042;42.626;23.382;2024-01-30T08:30:37;5.57;;;4.53;;
10005;SDS011;5042;42.626;23.382;2024-01-30T08:33:05;6.07;;;3.93;;
10005;SDS011;5042;42.626;23.382;2024-01-30T08:35:32;6.53;;;4.37;;
10005;SDS011;5042;42.626;23.382;2024-01-30T08:38:00;6.17;;;4.33;;
10005;SDS011;5042;42.626;23.382;2024-01-30T08:40:27;5.10;;;4.20;;
10005;SDS011;5042;42.626;23.382;2024-01-30T08:42:54;6.20;;;4.60;;
10005;SDS011;5042;42.626;23.382;2024-01-30T08:45:21;8.57;;;3.93;;
10005;SDS011;5042;42.626;23.382;2024-01-30T08:47:48;6.00;;;3.93;;
10005;SDS011;5042;42.626;23.382;2024-01-30T08:50:15;4.43;;;3.60;;
10005;SDS011;5042;42.626;23.382;2024-01-30T08:52:42;3.90;;;3.50;;
10005;SDS011;5042;42.626;23.382;2024-01-30T08:55:11;4.77;;;3.70;;
10005;SDS011;5042;42.626;23.382;2024-01-30T08:57:38;4.03;;;3.50;;
10005;SDS011;5042;42.626;23.382;2024-01-30T09:00:05;7.07;;;3.40;;
10005;SDS011;5042;42.626;23.382;2024-01-30T09:02:34;4.37;;;3.40;;
10005;SDS011;5042;42.626;23.382;2024-01-30T09:05:01;3.40;;;2.60;;
10005;SDS011;5042;42.626;23.382;2024-01-30T09:07:28;3.60;;;3.30;;
10005;SDS011;5042;42.626;23.382;2024-01-30T09:09:55;3.13;;;2.70;;
10005;SDS011;5042;42.626;23.382;2024-01-30T09:12:24;3.77;;;3.23;;
10005;SDS011;5042;42.626;23.382;2024-01-30T09:14:51;3.70;;;3.30;;
10005;SDS011;5042;42.626;23.382;2024-01-30T09:17:18;5.30;;;3.53;;
10005;SDS011;5042;42.626;23.382;2024-01-30T09:19:45;4.17;;;2.60;;
10005;SDS011;5042;42.626;23.382;2024-01-30T09:22:12;5.10;;;3.50;;
10005;SDS011;5042;42.626;23.382;2024-01-30T09:24:39;4.17;;;3.40;;
10005;SDS011;5042;42.626;23.382;2024-01-30T09:27:06;5.67;;;3.60;;
10005;SDS011;5042;42.626;23.382;2024-01-30T09:29:35;5.33;;;3.73;;
10005;SDS011;5042;42.626;23.382;2024-01-30T09:32:02;6.33;;;4.27;;
10005;SDS011;5042;42.626;23.382;2024-01-30T09:34:30;6.53;;;3.87;;
10005;SDS011;5042;42.626;23.382;2024-01-30T09:36:58;4.40;;;3.57;;
10005;SDS011;5042;42.626;23.382;2024-01-30T09:39:25;4.40;;;2.83;;
10005;SDS011;5042;42.626;23.382;2024-01-30T09:41:53;5.33;;;3.70;;
10005;SDS011;5042;42.626;23.382;2024-01-30T09:44:27;5.00;;;4.00;;
10005;SDS011;5042;42.626;23.382;2024-01-30T09:46:57;5.33;;;4.20;;
10005;SDS011;5042;42.626;23.382;2024-01-30T09:49:29;4.80;;;3.80;;
10005;SDS011;5042;42.626;23.382;2024-01-30T09:51:58;5.50;;;4.13;;
10005;SDS011;5042;42.626;23.382;2024-01-30T09:54:25;5.43;;;4.00;;
10005;SDS011;5042;42.626;23.382;2024-01-30T09:56:52;6.97;;;4.07;;
10005;SDS011;5042;42.626;23.382;2024-01-30T09:59:19;4.03;;;3.03;;
10005;SDS011;5042;42.626;23.382;2024-01-30T10:01:46;4.30;;;3.43;;
10005;SDS011;5042;42.626;23.382;2024-01-30T10:04:14;5.00;;;4.17;;
10005;SDS011;5042;42.626;23.382;2024-01-30T10:06:41;5.50;;;4.40;;
10005;SDS011;5042;42.626;23.382;2024-01-30T10:09:08;5.83;;;4.07;;
10005;SDS011;5042;42.626;23.382;2024-01-30T10:11:36;7.40;;;4.33;;
10005;SDS011;5042;42.626;23.382;2024-01-30T10:14:03;7.07;;;4.60;;
10005;SDS011;5042;42.626;23.382;2024-01-30T10:16:30;5.40;;;4.00;;
10005;SDS011;5042;42.626;23.382;2024-01-30T10:18:56;7.07;;;4.63;;
10005;SDS011;5042;42.626;23.382;2024-01-30T10:21:25;9.60;;;4.40;;
10005;SDS011;5042;42.626;23.382;2024-01-30T10:23:52;6.10;;;4.73;;
10005;SDS011;5042;42.626;23.382;2024-01-30T10:26:19;6.60;;;4.63;;
10005;SDS011;5042;42.626;23.382;2024-01-30T10:28:47;6.20;;;4.50;;
10005;SDS011;5042;42.626;23.382;2024-01-30T10:31:16;6.07;;;4.73;;
10005;SDS011;5042;42.626;23.382;2024-01-30T10:33:44;6.27;;;4.50;;
10005;SDS011;5042;42.626;23.382;2024-01-30T10:36:12;10.03;;;4.80;;
10005;SDS011;5042;42.626;23.382;2024-01-30T10:38:42;5.50;;;4.30;;
10005;SDS011;5042;42.626;23.382;2024-01-30T10:41:11;5.47;;;4.40;;
10005;SDS011;5042;42.626;23.382;2024-01-30T10:43:40;6.50;;;3.77;;
10005;SDS011;5042;42.626;23.382;2024-01-30T10:46:10;6.27;;;5.30;;
10005;SDS011;5042;42.626;23.382;2024-01-30T10:48:43;5.27;;;4.00;;
10005;SDS011;5042;42.626;23.382;2024-01-30T10:51:10;6.27;;;4.00;;
10005;SDS011;5042;42.626;23.382;2024-01-30T10:53:38;3.67;;;2.90;;
10005;SDS011;5042;42.626;23.382;2024-01-30T10:56:07;3.60;;;3.17;;
10005;SDS011;5042;42.626;23.382;2024-01-30T10:58:36;2.20;;;2.00;;
10005;SDS011;5042;42.626;23.382;2024-01-30T11:01:03;5.50;;;4.10;;
10005;SDS011;5042;42.626;23.382;2024-01-30T11:03:32;6.50;;;4.17;;
10005;SDS011;5042;42.626;23.382;2024-01-30T11:06:01;5.53;;;3.90;;
10005;SDS011;5042;42.626;23.382;2024-01-30T11:08:31;4.37;;;3.70;;
10005;SDS011;5042;42.626;23.382;2024-01-30T11:10:58;4.33;;;3.90;;
10005;SDS011;5042;42.626;23.382;2024-01-30T11:13:30;5.37;;;3.70;;
10005;SDS011;5042;42.626;23.382;2024-01-30T11:16:00;4.70;;;3.80;;
10005;SDS011;5042;42.626;23.382;2024-01-30T11:18:28;4.33;;;3.37;;
10005;SDS011;5042;42.626;23.382;2024-01-30T11:20:57;2.23;;;1.97;;
10005;SDS011;5042;42.626;23.382;2024-01-30T11:23:26;6.00;;;4.27;;
10005;SDS011;5042;42.626;23.382;2024-01-30T11:25:53;4.87;;;3.63;;
10005;SDS011;5042;42.626;23.382;2024-01-30T11:28:21;7.30;;;3.53;;
10005;SDS011;5042;42.626;23.382;2024-01-30T11:30:50;4.30;;;3.90;;
10005;SDS011;5042;42.626;23.382;2024-01-30T11:33:26;4.20;;;3.60;;
10005;SDS011;5042;42.626;23.382;2024-01-30T11:35:56;5.03;;;4.10;;
10005;SDS011;5042;42.626;23.382;2024-01-30T11:38:25;3.93;;;3.63;;
10005;SDS011;5042;42.626;23.382;2024-01-30T11:40:54;6.17;;;4.13;;
10005;SDS011;5042;42.626;23.382;2024-01-30T11:43:22;5.43;;;3.70;;
10005;SDS011;5042;42.626;23.382;2024-01-30T11:45:50;4.53;;;3.50;;
10005;SDS011;5042;42.626;23.382;2024-01-30T11:48:18;4.80;;;4.17;;
10005;SDS011;5042;42.626;23.382;2024-01-30T11:50:45;4.50;;;3.93;;
10005;SDS011;5042;42.626;23.382;2024-01-30T11:53:12;5.53;;;3.80;;
10005;SDS011;5042;42.626;23.382;2024-01-30T11:55:39;5.20;;;3.93;;
10005;SDS011;5042;42.626;23.382;2024-01-30T11:58:05;5.33;;;3.47;;
10005;SDS011;5042;42.626;23.382;2024-01-30T12:00:32;4.20;;;3.60;;
10005;SDS011;5042;42.626;23.382;2024-01-30T12:03:01;4.87;;;3.83;;
10005;SDS011;5042;42.626;23.382;2024-01-30T12:05:28;5.53;;;3.40;;
10005;SDS011;5042;42.626;23.382;2024-01-30T12:07:55;5.40;;;3.93;;
10005;SDS011;5042;42.626;23.382;2024-01-30T12:10:24;4.60;;;3.90;;
10005;SDS011;5042;42.626;23.382;2024-01-30T12:12:51;6.47;;;3.93;;
10005;SDS011;5042;42.626;23.382;2024-01-30T12:15:21;4.70;;;4.10;;
10005;SDS011;5042;42.626;23.382;2024-01-30T12:17:49;5.13;;;3.90;;
10005;SDS011;5042;42.626;23.382;2024-01-30T12:20:18;4.97;;;3.90;;
10005;SDS011;5042;42.626;23.382;2024-01-30T12:22:47;3.77;;;3.33;;
10005;SDS011;5042;42.626;23.382;2024-01-30T12:25:15;4.73;;;3.67;;
10005;SDS011;5042;42.626;23.382;2024-01-30T12:27:43;5.37;;;4.27;;
10005;SDS011;5042;42.626;23.382;2024-01-30T12:30:11;4.73;;;4.13;;
10005;SDS011;5042;42.626;23.382;2024-01-30T12:32:40;7.03;;;4.27;;
10005;SDS011;5042;42.626;23.382;2024-01-30T12:35:08;5.93;;;4.07;;
10005;SDS011;5042;42.626;23.382;2024-01-30T12:37:38;5.43;;;3.90;;
10005;SDS011;5042;42.626;23.382;2024-01-30T12:40:05;5.37;;;4.33;;
10005;SDS011;5042;42.626;23.382;2024-01-30T12:42:34;4.90;;;4.37;;
10005;SDS011;5042;42.626;23.382;2024-01-30T12:45:01;6.23;;;4.37;;
10005;SDS011;5042;42.626;23.382;2024-01-30T12:47:30;4.90;;;3.50;;
10005;SDS011;5042;42.626;23.382;2024-01-30T12:49:57;5.37;;;3.73;;
10005;SDS011;5042;42.626;23.382;2024-01-30T12:52:24;2.43;;;2.23;;
10005;SDS011;5042;42.626;23.382;2024-01-30T12:54:52;6.17;;;4.30;;
10005;SDS011;5042;42.626;23.382;2024-01-30T12:57:19;4.67;;;3.87;;
10005;SDS011;5042;42.626;23.382;2024-01-30T12:59:46;4.67;;;4.17;;
10005;SDS011;5042;42.626;23.382;2024-01-30T13:02:13;4.43;;;3.73;;
10005;SDS011;5042;42.626;23.382;2024-01-30T13:04:41;6.13;;;4.30;;
10005;SDS011;5042;42.626;23.382;2024-01-30T13:07:09;3.53;;;3.07;;
10005;SDS011;5042;42.626;23.382;2024-01-30T13:09:36;8.70;;;4.20;;
10005;SDS011;5042;42.626;23.382;2024-01-30T13:12:04;7.07;;;4.27;;
10005;SDS011;5042;42.626;23.382;2024-01-30T13:14:32;8.17;;;4.63;;
10005;SDS011;5042;42.626;23.382;2024-01-30T13:16:59;6.27;;;4.30;;
10005;SDS011;5042;42.626;23.382;2024-01-30T13:19:26;5.13;;;4.37;;
10005;SDS011;5042;42.626;23.382;2024-01-30T13:21:53;5.20;;;4.50;;
10005;SDS011;5042;42.626;23.382;2024-01-30T13:24:20;5.97;;;4.70;;
10005;SDS011;5042;42.626;23.382;2024-01-30T13:26:47;7.77;;;4.47;;
10005;SDS011;5042;42.626;23.382;2024-01-30T13:29:16;5.13;;;4.03;;
10005;SDS011;5042;42.626;23.382;2024-01-30T13:31:43;4.83;;;3.87;;
10005;SDS011;5042;42.626;23.382;2024-01-30T13:34:11;12.80;;;7.60;;
10005;SDS011;5042;42.626;23.382;2024-01-30T13:36:39;7.70;;;4.70;;
10005;SDS011;5042;42.626;23.382;2024-01-30T13:39:06;5.43;;;4.40;;
10005;SDS011;5042;42.626;23.382;2024-01-30T13:41:34;7.20;;;4.20;;
10005;SDS011;5042;42.626;23.382;2024-01-30T13:44:01;6.50;;;3.70;;
10005;SDS011;5042;42.626;23.382;2024-01-30T13:46:30;5.77;;;4.60;;
10005;SDS011;5042;42.626;23.382;2024-01-30T13:48:57;4.77;;;3.70;;
10005;SDS011;5042;42.626;23.382;2024-01-30T13:51:24;6.20;;;4.50;;
10005;SDS011;5042;42.626;23.382;2024-01-30T13:53:51;6.77;;;3.53;;
10005;SDS011;5042;42.626;23.382;2024-01-30T13:56:18;6.77;;;4.53;;
10005;SDS011;5042;42.626;23.382;2024-01-30T13:58:45;5.53;;;4.00;;
10005;SDS011;5042;42.626;23.382;2024-01-30T14:01:12;6.37;;;4.37;;
10005;SDS011;5042;42.626;23.382;2024-01-30T14:03:40;4.60;;;4.17;;
10005;SDS011;5042;42.626;23.382;2024-01-30T14:06:07;6.83;;;4.60;;
10005;SDS011;5042;42.626;23.382;2024-01-30T14:08:34;5.20;;;4.10;;
10005;SDS011;5042;42.626;23.382;2024-01-30T14:11:01;5.43;;;4.50;;
10005;SDS011;5042;42.626;23.382;2024-01-30T14:13:28;4.77;;;4.03;;
10005;SDS011;5042;42.626;23.382;2024-01-30T14:15:56;5.13;;;4.60;;
10005;SDS011;5042;42.626;23.382;2024-01-30T14:18:23;5.83;;;4.90;;
10005;SDS011;5042;42.626;23.382;2024-01-30T14:20:52;5.50;;;4.60;;
10005;SDS011;5042;42.626;23.382;2024-01-30T14:23:19;6.73;;;4.07;;
10005;SDS011;5042;42.626;23.382;2024-01-30T14:25:46;5.50;;;4.93;;
10005;SDS011;5042;42.626;23.382;2024-01-30T14:28:14;6.60;;;4.73;;
10005;SDS011;5042;42.626;23.382;2024-01-30T14:30:41;5.80;;;3.97;;
10005;SDS011;5042;42.626;23.382;2024-01-30T14:33:07;6.27;;;4.40;;
10005;SDS011;5042;42.626;23.382;2024-01-30T14:35:34;6.00;;;4.10;;
10005;SDS011;5042;42.626;23.382;2024-01-30T14:38:03;7.40;;;4.43;;
10005;SDS011;5042;42.626;23.382;2024-01-30T14:40:32;4.03;;;3.03;;
10005;SDS011;5042;42.626;23.382;2024-01-30T14:42:59;5.00;;;3.50;;
10005;SDS011;5042;42.626;23.382;2024-01-30T14:45:27;5.07;;;3.90;;
10005;SDS011;5042;42.626;23.382;2024-01-30T14:47:53;7.30;;;4.80;;
10005;SDS011;5042;42.626;23.382;2024-01-30T14:50:21;7.17;;;4.70;;